createdAt,value
2023-03-16T00:02:05.513Z,4.85
2023-03-16T00:04:37.680Z,4.80
2023-03-16T00:07:10.570Z,5.72
2023-03-16T00:09:41.534Z,5.22
2023-03-16T00:12:19.334Z,4.18
2023-03-16T00:14:48.484Z,5.80
2023-03-16T00:17:21.066Z,6.57
2023-03-16T00:19:51.749Z,6.43
2023-03-16T00:22:18.650Z,6.97
2023-03-16T00:24:45.536Z,6.03
2023-03-16T00:27:14.963Z,5.22
2023-03-16T00:29:49.572Z,5.82
2023-03-16T00:32:18.682Z,4.30
2023-03-16T00:34:46.521Z,7.78
2023-03-16T00:37:15.979Z,5.90
2023-03-16T00:39:44.259Z,4.80
2023-03-16T00:42:13.049Z,3.88
2023-03-16T00:44:41.788Z,4.78
2023-03-16T00:47:09.806Z,4.80
2023-03-16T00:49:36.903Z,3.60
2023-03-16T00:52:07.901Z,6.63
2023-03-16T00:54:34.833Z,4.65
2023-03-16T00:57:02.648Z,4.47
2023-03-16T00:59:31.184Z,4.57
2023-03-16T01:01:58.204Z,4.15
2023-03-16T01:04:25.089Z,4.10
2023-03-16T01:06:52.068Z,3.92
2023-03-16T01:09:19.026Z,4.80
2023-03-16T01:11:46.618Z,4.80
2023-03-16T01:14:13.550Z,4.40
2023-03-16T01:16:40.601Z,4.43
2023-03-16T01:19:07.677Z,3.67
2023-03-16T01:21:37.064Z,3.88
2023-03-16T01:24:04.606Z,4.50
2023-03-16T01:26:32.455Z,5.30
2023-03-16T01:28:59.390Z,3.35
2023-03-16T01:31:26.725Z,4.88
2023-03-16T01:33:53.643Z,4.30
2023-03-16T01:36:21.166Z,4.97
2023-03-16T01:38:48.477Z,4.95
2023-03-16T01:41:16.165Z,4.90
2023-03-16T01:43:43.655Z,4.50
2023-03-16T01:46:23.122Z,4.78
2023-03-16T01:49:10.924Z,7.18
2023-03-16T01:51:52.155Z,8.02
2023-03-16T01:54:25.935Z,5.32
2023-03-16T01:57:04.810Z,3.55
2023-03-16T01:59:36.336Z,7.32
2023-03-16T02:02:03.475Z,5.78
2023-03-16T02:04:40.895Z,5.55
2023-03-16T02:07:09.230Z,5.32
2023-03-16T02:09:42.809Z,6.05
2023-03-16T02:12:17.952Z,4.37
2023-03-16T02:14:49.901Z,4.40
2023-03-16T02:17:20.992Z,4.72
2023-03-16T02:20:11.351Z,4.85
2023-03-16T02:22:43.120Z,4.70
2023-03-16T02:25:11.811Z,4.50
2023-03-16T02:27:46.734Z,4.60
2023-03-16T02:30:16.179Z,4.38
2023-03-16T02:32:46.596Z,5.15
2023-03-16T02:35:13.794Z,6.85
2023-03-16T02:37:41.968Z,4.38
2023-03-16T02:40:25.801Z,3.80
2023-03-16T02:43:07.527Z,5.40
2023-03-16T02:45:52.669Z,4.57
2023-03-16T02:48:25.343Z,4.78
2023-03-16T02:50:54.041Z,5.10
2023-03-16T02:53:21.811Z,4.38
2023-03-16T02:55:48.790Z,5.13
2023-03-16T02:58:16.409Z,4.78
2023-03-16T03:00:43.699Z,5.00
2023-03-16T03:03:10.783Z,4.38
2023-03-16T03:05:38.233Z,5.78
2023-03-16T03:08:06.252Z,4.50
2023-03-16T03:10:33.277Z,4.45
2023-03-16T03:13:00.374Z,4.70
2023-03-16T03:15:27.373Z,3.90
2023-03-16T03:17:54.324Z,4.95
2023-03-16T03:20:21.789Z,4.65
2023-03-16T03:22:55.073Z,4.72
2023-03-16T03:25:22.993Z,4.53
2023-03-16T03:27:51.727Z,4.90
2023-03-16T03:30:21.930Z,5.13
2023-03-16T03:32:49.551Z,4.45
2023-03-16T03:35:16.665Z,5.38
2023-03-16T03:37:44.633Z,4.60
2023-03-16T03:40:14.858Z,4.65
2023-03-16T03:42:42.624Z,4.22
2023-03-16T03:45:13.830Z,5.05
2023-03-16T03:47:42.362Z,4.90
2023-03-16T03:50:11.163Z,5.05
2023-03-16T03:52:38.108Z,4.65
2023-03-16T03:55:06.072Z,4.25
2023-03-16T03:57:33.146Z,5.03
2023-03-16T04:00:00.091Z,4.55
2023-03-16T04:02:27.162Z,4.88
2023-03-16T04:04:54.316Z,4.30
2023-03-16T04:07:21.311Z,4.70
2023-03-16T04:09:48.245Z,4.70
2023-03-16T04:12:15.190Z,5.10
2023-03-16T04:14:42.098Z,4.70
2023-03-16T04:17:09.389Z,5.50
2023-03-16T04:19:36.426Z,4.90
2023-03-16T04:22:03.493Z,4.22
2023-03-16T04:24:30.421Z,5.25
2023-03-16T04:26:57.372Z,4.50
2023-03-16T04:29:25.502Z,4.93
2023-03-16T04:31:53.946Z,4.82
2023-03-16T04:34:25.223Z,5.20
2023-03-16T04:36:55.194Z,4.50
2023-03-16T04:39:23.603Z,4.55
2023-03-16T04:41:51.503Z,5.07
2023-03-16T04:44:18.617Z,5.20
2023-03-16T04:46:45.574Z,4.82
2023-03-16T04:49:12.542Z,4.47
2023-03-16T04:51:40.827Z,4.72
2023-03-16T04:54:08.224Z,4.88
2023-03-16T04:56:35.436Z,5.03
2023-03-16T04:59:02.455Z,5.13
2023-03-16T05:01:29.498Z,5.65
2023-03-16T05:03:58.624Z,4.78
2023-03-16T05:06:26.640Z,5.57
2023-03-16T05:08:53.583Z,4.43
2023-03-16T05:11:20.896Z,6.10
2023-03-16T05:13:47.797Z,6.70
2023-03-16T05:16:14.850Z,5.63
2023-03-16T05:18:41.852Z,5.75
2023-03-16T05:21:09.124Z,5.07
2023-03-16T05:23:36.078Z,5.47
2023-03-16T05:26:03.142Z,5.38
2023-03-16T05:28:30.086Z,6.65
2023-03-16T05:30:57.994Z,5.32
2023-03-16T05:33:25.066Z,5.18
2023-03-16T05:35:52.481Z,6.10
2023-03-16T05:38:19.726Z,5.97
2023-03-16T05:40:53.050Z,5.40
2023-03-16T05:43:21.253Z,5.88
2023-03-16T05:45:48.325Z,5.90
2023-03-16T05:48:15.594Z,5.45
2023-03-16T05:50:42.542Z,6.47
2023-03-16T05:53:09.588Z,6.10
2023-03-16T05:55:36.549Z,5.95
2023-03-16T05:58:05.661Z,5.60
2023-03-16T06:00:33.019Z,6.05
2023-03-16T06:03:01.663Z,5.65
2023-03-16T06:05:29.691Z,6.57
2023-03-16T06:07:56.679Z,6.10
2023-03-16T06:10:26.696Z,5.40
2023-03-16T06:12:53.895Z,5.57
2023-03-16T06:15:25.061Z,5.15
2023-03-16T06:17:52.542Z,6.85
2023-03-16T06:20:19.557Z,6.53
2023-03-16T06:22:46.490Z,6.85
2023-03-16T06:25:14.845Z,7.40
2023-03-16T06:27:42.548Z,6.63
2023-03-16T06:30:12.123Z,7.30
2023-03-16T06:32:42.179Z,7.05
2023-03-16T06:35:10.330Z,6.72
2023-03-16T06:37:37.303Z,6.38
2023-03-16T06:40:05.474Z,6.90
2023-03-16T06:42:32.368Z,6.35
2023-03-16T06:44:59.409Z,5.93
2023-03-16T06:47:26.480Z,5.85
2023-03-16T06:49:55.358Z,5.20
2023-03-16T06:52:22.880Z,5.47
2023-03-16T06:54:49.856Z,4.38
2023-03-16T06:57:16.969Z,4.40
2023-03-16T06:59:43.950Z,5.43
2023-03-16T07:02:13.924Z,4.47
2023-03-16T07:04:42.131Z,4.75
2023-03-16T07:07:10.261Z,4.38
2023-03-16T07:09:40.314Z,4.43
2023-03-16T07:12:09.544Z,4.03
2023-03-16T07:14:36.644Z,4.60
2023-03-16T07:17:03.589Z,4.15
2023-03-16T07:19:30.549Z,6.35
2023-03-16T07:21:57.473Z,4.18
2023-03-16T07:24:24.610Z,3.90
2023-03-16T07:26:53.174Z,4.45
2023-03-16T07:33:07.507Z,3.45
2023-03-16T07:35:34.718Z,4.47
2023-03-16T07:41:49.570Z,4.53
2023-03-16T07:44:16.600Z,4.43
2023-03-16T07:46:43.543Z,4.60
2023-03-16T07:49:12.330Z,4.38
2023-03-16T07:51:39.658Z,4.30
2023-03-16T07:54:06.598Z,4.70
2023-03-16T07:56:47.456Z,3.50
2023-03-16T07:59:15.576Z,4.40
2023-03-16T08:01:42.470Z,3.55
2023-03-16T08:04:12.488Z,4.00
2023-03-16T08:06:39.565Z,4.15
2023-03-16T08:09:06.577Z,3.95
2023-03-16T08:11:33.512Z,4.28
2023-03-16T08:14:00.453Z,5.93
2023-03-16T08:16:28.770Z,4.68
2023-03-16T08:18:59.834Z,4.95
2023-03-16T08:21:26.893Z,4.10
2023-03-16T08:23:53.925Z,4.30
2023-03-16T08:26:21.640Z,4.45
2023-03-16T08:28:52.014Z,4.30
2023-03-16T08:31:20.654Z,4.85
2023-03-16T08:33:48.687Z,4.75
2023-03-16T08:36:18.059Z,4.30
2023-03-16T08:38:59.876Z,4.63
2023-03-16T08:41:34.840Z,4.30
2023-03-16T08:44:03.339Z,3.92
2023-03-16T08:46:31.211Z,4.00
2023-03-16T08:48:58.329Z,4.22
2023-03-16T08:51:25.391Z,4.20
2023-03-16T08:53:52.909Z,3.40
2023-03-16T08:56:20.209Z,4.00
2023-03-16T08:58:47.345Z,3.30
2023-03-16T09:01:17.657Z,3.40
2023-03-16T09:03:46.488Z,3.97
2023-03-16T09:06:16.608Z,3.10
2023-03-16T09:08:45.553Z,3.38
2023-03-16T09:11:15.000Z,2.80
2023-03-16T09:13:42.984Z,3.25
2023-03-16T09:16:12.227Z,3.25
2023-03-16T09:18:40.093Z,2.90
2023-03-16T09:21:10.600Z,2.67
2023-03-16T09:23:37.878Z,3.20
2023-03-16T09:26:07.706Z,2.95
2023-03-16T09:28:38.795Z,3.58
2023-03-16T09:31:07.438Z,3.97
2023-03-16T09:33:35.619Z,3.08
2023-03-16T09:36:03.795Z,2.13
2023-03-16T09:38:31.727Z,2.80
2023-03-16T09:41:17.225Z,2.65
2023-03-16T09:43:50.003Z,2.83
2023-03-16T09:46:33.383Z,2.92
2023-03-16T09:51:41.308Z,2.67
2023-03-16T09:54:24.126Z,2.50
2023-03-16T09:56:54.594Z,3.58
2023-03-16T09:59:22.924Z,2.63
2023-03-16T10:05:33.154Z,3.13
2023-03-16T10:08:24.652Z,3.30
2023-03-16T10:11:18.376Z,2.95
2023-03-16T10:13:54.356Z,3.67
2023-03-16T10:16:38.424Z,3.50
2023-03-16T10:19:30.909Z,3.50
2023-03-16T10:22:02.476Z,2.83
2023-03-16T10:24:39.077Z,2.97
2023-03-16T10:27:13.105Z,3.20
2023-03-16T10:29:40.070Z,3.35
2023-03-16T10:32:16.695Z,3.80
2023-03-16T10:34:48.802Z,3.67
2023-03-16T10:37:15.985Z,3.15
2023-03-16T10:39:45.661Z,4.05
2023-03-16T10:42:17.838Z,3.75
2023-03-16T10:44:45.272Z,3.25
2023-03-16T10:47:38.533Z,4.07
2023-03-16T10:50:18.563Z,3.20
2023-03-16T10:52:48.201Z,3.00
2023-03-16T10:55:21.840Z,3.30
2023-03-16T10:57:55.200Z,2.87
2023-03-16T11:00:42.049Z,2.95
2023-03-16T11:03:29.246Z,2.65
2023-03-16T11:06:03.534Z,2.75
2023-03-16T11:08:39.266Z,2.63
2023-03-16T11:11:29.241Z,2.90
2023-03-16T11:14:01.269Z,2.60
2023-03-16T11:16:39.354Z,2.00
2023-03-16T11:19:27.366Z,2.63
2023-03-16T11:22:06.837Z,2.22
2023-03-16T11:24:50.806Z,2.55
2023-03-16T11:27:21.498Z,4.93
2023-03-16T11:30:07.210Z,2.78
2023-03-16T11:32:38.078Z,2.13
2023-03-16T11:35:28.855Z,1.73
2023-03-16T11:38:10.580Z,2.20
2023-03-16T11:41:05.932Z,3.13
2023-03-16T11:43:51.257Z,2.10
2023-03-16T11:46:40.366Z,2.25
2023-03-16T11:49:10.131Z,1.90
2023-03-16T11:51:47.996Z,2.40
2023-03-16T11:54:33.681Z,1.90
2023-03-16T11:57:14.462Z,1.80
2023-03-16T12:00:01.361Z,3.65
2023-03-16T12:03:10.861Z,8.45
2023-03-16T12:05:59.869Z,2.40
2023-03-16T12:08:50.585Z,3.20
2023-03-16T12:11:39.772Z,2.53
2023-03-16T12:14:23.496Z,2.30
2023-03-16T12:17:10.091Z,2.55
2023-03-16T12:19:52.410Z,4.63
2023-03-16T12:22:28.534Z,2.20
2023-03-16T12:24:55.464Z,1.90
2023-03-16T12:27:27.730Z,2.10
2023-03-16T12:30:20.895Z,2.10
2023-03-16T12:32:57.007Z,2.88
2023-03-16T12:35:36.677Z,5.28
2023-03-16T12:38:15.980Z,4.10
2023-03-16T12:40:55.267Z,2.50
2023-03-16T12:43:34.162Z,3.10
2023-03-16T12:46:10.203Z,3.28
2023-03-16T12:48:45.997Z,2.50
2023-03-16T12:51:13.048Z,2.28
2023-03-16T12:53:47.064Z,2.47
2023-03-16T12:56:34.854Z,2.67
2023-03-16T12:59:07.695Z,2.40
2023-03-16T13:01:42.578Z,2.40
2023-03-16T13:04:12.827Z,3.30
2023-03-16T13:06:45.595Z,2.40
2023-03-16T13:09:18.553Z,2.30
2023-03-16T13:11:50.476Z,2.65
2023-03-16T13:14:40.794Z,2.85
2023-03-16T13:17:24.794Z,2.42
2023-03-16T13:20:30.413Z,2.50
2023-03-16T13:23:23.424Z,2.67
2023-03-16T13:26:27.403Z,2.58
2023-03-16T13:28:55.427Z,2.33
2023-03-16T13:31:27.800Z,2.80
2023-03-16T13:34:00.234Z,3.13
2023-03-16T13:36:30.233Z,3.05
2023-03-16T13:39:27.485Z,3.00
2023-03-16T13:42:18.037Z,3.10
2023-03-16T13:44:45.582Z,3.47
2023-03-16T13:47:20.085Z,3.40
2023-03-16T13:49:50.968Z,3.95
2023-03-16T13:52:29.515Z,3.13
2023-03-16T13:54:58.769Z,2.92
2023-03-16T13:57:28.630Z,3.22
2023-03-16T14:00:24.900Z,3.47
2023-03-16T14:02:55.674Z,3.17
2023-03-16T14:05:33.238Z,2.85
2023-03-16T14:08:05.152Z,2.72
2023-03-16T14:10:36.593Z,2.83
2023-03-16T14:13:34.098Z,2.40
2023-03-16T14:16:10.314Z,2.95
2023-03-16T14:18:42.446Z,2.50
2023-03-16T14:21:28.871Z,3.00
2023-03-16T14:24:02.193Z,2.60
2023-03-16T14:26:43.877Z,2.30
2023-03-16T14:29:28.457Z,2.30
2023-03-16T14:31:55.748Z,2.42
2023-03-16T14:34:35.828Z,2.45
2023-03-16T14:37:20.205Z,2.30
2023-03-16T14:39:59.201Z,2.00
2023-03-16T14:42:26.137Z,2.33
2023-03-16T14:44:53.175Z,2.13
2023-03-16T14:47:26.311Z,2.15
2023-03-16T14:49:53.468Z,2.47
2023-03-16T14:52:24.278Z,2.63
2023-03-16T14:54:52.358Z,3.10
2023-03-16T14:57:19.877Z,3.50
2023-03-16T15:03:37.458Z,3.00
2023-03-16T15:06:04.583Z,2.22
2023-03-16T15:08:37.283Z,3.13
2023-03-16T15:11:06.714Z,2.22
2023-03-16T15:13:57.084Z,1.95
2023-03-16T15:16:24.146Z,2.03
2023-03-16T15:18:52.080Z,1.80
2023-03-16T15:21:23.366Z,2.00
2023-03-16T15:27:37.908Z,5.18
2023-03-16T15:30:15.209Z,2.90
2023-03-16T15:32:42.248Z,2.58
2023-03-16T15:35:09.604Z,2.53
2023-03-16T15:37:37.531Z,3.30
2023-03-16T15:40:22.403Z,4.82
2023-03-16T15:46:36.716Z,2.50
2023-03-16T15:49:03.683Z,2.47
2023-03-16T15:55:24.399Z,2.35
2023-03-16T15:57:58.934Z,3.85
2023-03-16T16:02:53.549Z,2.17
2023-03-16T16:05:23.457Z,2.25
2023-03-16T16:07:51.190Z,2.78
2023-03-16T16:10:18.517Z,2.88
2023-03-16T16:12:51.559Z,3.75
2023-03-16T16:15:31.147Z,3.67
2023-03-16T16:18:20.019Z,2.67
2023-03-16T16:20:46.156Z,2.97
2023-03-16T16:23:14.049Z,3.30
2023-03-16T16:25:43.259Z,2.90
2023-03-16T16:28:23.115Z,3.13
2023-03-16T16:30:50.718Z,2.78
2023-03-16T16:33:24.930Z,2.95
2023-03-16T16:35:53.850Z,2.83
2023-03-16T16:38:22.069Z,2.70
2023-03-16T16:40:50.260Z,2.97
2023-03-16T16:43:32.540Z,4.03
2023-03-16T16:46:02.066Z,3.60
2023-03-16T16:48:40.718Z,3.20
2023-03-16T16:51:26.162Z,6.15
2023-03-16T16:53:58.683Z,3.60
2023-03-16T16:56:31.949Z,3.13
2023-03-16T16:59:02.517Z,5.35
2023-03-16T17:01:35.399Z,3.50
2023-03-16T17:04:03.182Z,3.15
2023-03-16T17:06:30.556Z,3.28
2023-03-16T17:08:57.603Z,3.00
2023-03-16T17:11:32.532Z,3.08
2023-03-16T17:14:02.301Z,3.45
2023-03-16T17:16:35.848Z,3.70
2023-03-16T17:19:03.633Z,4.13
2023-03-16T17:21:31.792Z,3.55
2023-03-16T17:24:00.405Z,4.07
2023-03-16T17:26:45.647Z,5.18
2023-03-16T17:29:30.532Z,4.05
2023-03-16T17:31:58.962Z,3.85
2023-03-16T17:34:28.946Z,4.93
2023-03-16T17:36:56.598Z,4.47
2023-03-16T17:39:29.797Z,3.90
2023-03-16T17:41:59.075Z,3.90
2023-03-16T17:44:30.474Z,3.97
2023-03-16T17:46:57.640Z,3.88
2023-03-16T17:49:28.731Z,3.75
2023-03-16T17:51:56.301Z,3.15
2023-03-16T17:54:23.463Z,3.55
2023-03-16T17:56:52.965Z,3.50
2023-03-16T17:59:22.167Z,3.45
2023-03-16T18:01:49.255Z,3.78
2023-03-16T18:04:25.888Z,3.10
2023-03-16T18:06:53.648Z,3.25
2023-03-16T18:09:21.209Z,3.50
2023-03-16T18:11:51.410Z,3.17
2023-03-16T18:14:39.894Z,3.63
2023-03-16T18:17:29.601Z,3.22
2023-03-16T18:19:57.593Z,3.45
2023-03-16T18:22:25.295Z,3.13
2023-03-16T18:24:54.064Z,2.90
2023-03-16T18:27:21.642Z,3.03
2023-03-16T18:29:48.916Z,3.17
2023-03-16T18:32:25.313Z,3.42
2023-03-16T18:34:53.386Z,3.45
2023-03-16T18:37:28.150Z,3.72
2023-03-16T18:39:55.416Z,3.47
2023-03-16T18:42:28.814Z,2.95
2023-03-16T18:44:56.291Z,4.90
2023-03-16T18:47:24.639Z,3.60
2023-03-16T18:49:54.165Z,3.20
2023-03-16T18:52:22.701Z,3.03
2023-03-16T18:54:50.469Z,4.28
2023-03-16T18:57:20.214Z,3.80
2023-03-16T18:59:47.567Z,4.10
2023-03-16T19:02:39.141Z,4.40
2023-03-16T19:05:18.734Z,3.35
2023-03-16T19:07:48.929Z,3.22
2023-03-16T19:10:48.072Z,3.40
2023-03-16T19:13:21.658Z,3.92
2023-03-16T19:15:53.393Z,3.58
2023-03-16T19:18:21.360Z,3.58
2023-03-16T19:20:50.432Z,3.95
2023-03-16T19:23:33.152Z,3.67
2023-03-16T19:26:00.160Z,3.63
2023-03-16T19:28:34.164Z,3.72
2023-03-16T19:31:04.267Z,3.47
2023-03-16T19:33:31.813Z,4.38
2023-03-16T19:35:59.463Z,4.97
2023-03-16T19:38:27.025Z,5.22
2023-03-16T19:40:58.011Z,5.20
2023-03-16T19:43:26.126Z,6.20
2023-03-16T19:45:55.115Z,5.30
2023-03-16T19:48:42.485Z,5.28
2023-03-16T19:51:17.607Z,5.13
2023-03-16T19:53:45.728Z,5.65
2023-03-16T19:56:15.783Z,5.53
2023-03-16T19:58:45.847Z,5.28
2023-03-16T20:05:00.957Z,5.82
2023-03-16T20:07:28.354Z,5.72
2023-03-16T20:09:55.873Z,7.00
2023-03-16T20:12:26.202Z,9.60
2023-03-16T20:14:54.371Z,7.60
2023-03-16T20:17:29.809Z,6.93
2023-03-16T20:19:57.549Z,6.45
2023-03-16T20:22:27.915Z,7.60
2023-03-16T20:24:58.511Z,8.65
2023-03-16T20:27:27.829Z,7.03
2023-03-16T20:29:55.158Z,6.97
2023-03-16T20:32:24.937Z,7.35
2023-03-16T20:34:53.701Z,7.53
2023-03-16T20:37:27.209Z,7.22
2023-03-16T20:39:56.049Z,6.78
2023-03-16T20:42:30.636Z,6.60
2023-03-16T20:47:26.857Z,5.75
2023-03-16T20:49:57.546Z,7.75
2023-03-16T20:52:30.515Z,7.35
2023-03-16T20:54:58.348Z,6.55
2023-03-16T20:57:27.614Z,6.15
2023-03-16T20:59:55.617Z,5.00
2023-03-16T21:02:30.147Z,6.28
2023-03-16T21:11:21.899Z,6.57
2023-03-16T21:13:49.151Z,6.25
2023-03-16T21:16:16.740Z,7.63
2023-03-16T21:22:34.966Z,8.30
2023-03-16T21:25:02.041Z,6.60
2023-03-16T21:27:32.107Z,6.85
2023-03-16T21:30:04.819Z,7.68
2023-03-16T21:32:33.895Z,6.65
2023-03-16T21:35:00.938Z,7.53
2023-03-16T21:37:28.096Z,7.20
2023-03-16T21:39:55.074Z,6.97
2023-03-16T21:42:22.289Z,6.82
2023-03-16T21:44:49.332Z,7.15
2023-03-16T21:47:26.664Z,7.35
2023-03-16T21:49:54.809Z,7.57
2023-03-16T21:52:27.882Z,7.05
2023-03-16T21:54:56.168Z,7.38
2023-03-16T21:57:23.425Z,6.88
2023-03-16T21:59:51.266Z,5.90
2023-03-16T22:02:22.783Z,6.68
2023-03-16T22:04:51.238Z,6.53
2023-03-16T22:07:19.609Z,5.78
2023-03-16T22:09:46.669Z,6.85
2023-03-16T22:12:14.504Z,5.70
2023-03-16T22:14:42.163Z,5.63
2023-03-16T22:17:20.277Z,5.43
2023-03-16T22:19:47.895Z,4.90
2023-03-16T22:22:17.092Z,5.35
2023-03-16T22:24:44.050Z,4.72
2023-03-16T22:27:22.769Z,5.25
2023-03-16T22:29:51.283Z,6.10
2023-03-16T22:32:21.364Z,6.13
2023-03-16T22:34:49.899Z,6.65
2023-03-16T22:37:23.187Z,6.03
2023-03-16T22:39:50.594Z,5.40
2023-03-16T22:42:38.733Z,4.85
2023-03-16T22:45:19.192Z,4.35
2023-03-16T22:47:47.918Z,4.90
2023-03-16T22:50:16.764Z,5.18
2023-03-16T22:52:46.379Z,5.32
2023-03-16T22:55:22.594Z,5.28
2023-03-16T22:58:02.370Z,4.80
2023-03-16T23:00:29.503Z,5.07
2023-03-16T23:02:57.635Z,5.13
2023-03-16T23:05:28.033Z,5.03
2023-03-16T23:07:56.395Z,6.07
2023-03-16T23:10:28.418Z,5.45
2023-03-16T23:12:56.039Z,4.00
2023-03-16T23:15:28.815Z,4.97
2023-03-16T23:17:56.555Z,5.20
2023-03-16T23:20:27.776Z,4.55
2023-03-16T23:22:55.537Z,4.90
2023-03-16T23:25:23.696Z,4.80
2023-03-16T23:27:51.913Z,4.50
2023-03-16T23:30:25.864Z,4.88
2023-03-16T23:32:54.195Z,4.80
2023-03-16T23:35:24.539Z,4.70
2023-03-16T23:37:53.288Z,5.47
2023-03-16T23:40:21.796Z,4.75
2023-03-16T23:42:49.556Z,5.03
2023-03-16T23:45:24.821Z,4.45
2023-03-16T23:47:53.730Z,4.35
2023-03-16T23:50:27.655Z,5.03
2023-03-16T23:52:55.993Z,5.47
2023-03-16T23:55:24.120Z,5.13
2023-03-16T23:57:51.447Z,5.10
